Time;durP1;ratioP1;P1;durP2;ratioP2;P2;SDS_P1;SDS_P2;PMS_P1;PMS_P2;Temp;Humidity;BMP_temperature;BMP_pressure;BME280_temperature;BME280_humidity;BME280_pressure;Samples;Min_cycle;Max_cycle;Signal;HPM_P1;HPM_P2
2021/06/13 00:00:11;;;;;;;10.48;2.17;;;14.10;83.00;;;;;;5067221;28;20005;-77
2021/06/13 00:02:37;;;;;;;11.63;2.53;;;14.10;83.50;;;;;;5068288;28;20024;-78
2021/06/13 00:05:05;;;;;;;10.00;2.17;;;14.10;84.30;;;;;;5084328;28;20195;-78
2021/06/13 00:07:31;;;;;;;9.73;2.70;;;14.10;83.80;;;;;;5067966;28;20068;-78
2021/06/13 00:09:56;;;;;;;12.02;2.65;;;14.10;84.90;;;;;;5064753;28;20012;-78
2021/06/13 00:12:22;;;;;;;11.85;2.78;;;14.10;85.10;;;;;;5063890;28;20009;-78
2021/06/13 00:14:48;;;;;;;12.90;2.47;;;14.00;84.10;;;;;;5055101;28;20013;-78
2021/06/13 00:17:16;;;;;;;9.38;2.33;;;14.00;83.80;;;;;;5067350;28;20013;-79
2021/06/13 00:19:43;;;;;;;12.73;2.63;;;14.00;84.80;;;;;;5052138;28;20183;-77
2021/06/13 00:22:08;;;;;;;10.55;2.72;;;14.00;85.50;;;;;;5051938;28;20110;-78
2021/06/13 00:24:34;;;;;;;12.07;2.72;;;14.00;85.70;;;;;;5053784;28;20028;-79
2021/06/13 00:26:59;;;;;;;11.82;2.38;;;14.00;84.70;;;;;;5066615;28;20019;-80
2021/06/13 00:29:25;;;;;;;10.65;2.33;;;14.00;84.60;;;;;;5066681;28;20076;-78
2021/06/13 00:31:51;;;;;;;7.90;2.10;;;14.00;85.00;;;;;;5066641;28;20050;-79
2021/06/13 00:34:16;;;;;;;13.38;2.72;;;14.00;86.10;;;;;;5083054;28;20046;-77
2021/06/13 00:36:42;;;;;;;7.47;1.88;;;14.00;84.70;;;;;;5084940;28;20021;-78
2021/06/13 00:39:08;;;;;;;9.60;2.42;;;14.00;85.30;;;;;;5067717;28;20103;-77
2021/06/13 00:41:33;;;;;;;9.25;2.45;;;14.00;84.90;;;;;;5067104;28;20017;-77
2021/06/13 00:43:59;;;;;;;7.07;2.10;;;14.00;85.80;;;;;;5049557;28;20047;-77
2021/06/13 00:46:24;;;;;;;9.20;2.38;;;14.10;87.20;;;;;;5049951;28;20019;-80
2021/06/13 00:48:50;;;;;;;12.40;2.38;;;14.00;84.30;;;;;;5082992;28;20023;-77
2021/06/13 00:51:16;;;;;;;8.30;2.22;;;14.00;84.10;;;;;;5083366;28;20032;-78
2021/06/13 00:53:41;;;;;;;13.88;2.80;;;13.90;84.40;;;;;;5066393;28;20377;-77
2021/06/13 00:56:07;;;;;;;9.90;2.40;;;13.90;83.90;;;;;;5065805;28;20338;-78
2021/06/13 00:58:33;;;;;;;9.48;2.60;;;13.90;84.30;;;;;;5066403;28;20013;-77
2021/06/13 01:00:58;;;;;;;9.70;2.15;;;14.00;86.40;;;;;;5066327;28;20013;-78
2021/06/13 01:03:24;;;;;;;11.55;3.08;;;13.90;85.00;;;;;;5066692;28;20092;-77
2021/06/13 01:05:49;;;;;;;11.65;2.45;;;13.90;84.60;;;;;;5055782;28;20033;-78
2021/06/13 01:08:51;;;;;;;9.38;2.20;;;13.90;86.40;;;;;;5050777;28;20020;-77
2021/06/13 01:11:27;;;;;;;11.63;2.58;;;13.90;85.50;;;;;;5082432;28;20024;-77
2021/06/13 01:14:08;;;;;;;8.23;2.20;;;13.90;84.80;;;;;;5065837;28;20317;-77
2021/06/13 01:16:46;;;;;;;8.82;2.13;;;13.90;85.60;;;;;;5068469;28;20008;-78
2021/06/13 01:19:41;;;;;;;11.65;2.63;;;13.90;86.40;;;;;;5051865;28;20062;-78
2021/06/13 01:22:44;;;;;;;9.43;2.55;;;13.90;86.90;;;;;;5066997;28;20009;-78
2021/06/13 01:25:29;;;;;;;6.75;2.10;;;13.90;86.10;;;;;;5082265;28;20226;-77
2021/06/13 01:28:39;;;;;;;9.63;2.15;;;13.90;87.20;;;;;;5082160;28;20012;-77
2021/06/13 01:31:05;;;;;;;10.48;2.33;;;13.90;85.60;;;;;;5083185;28;20088;-78
2021/06/13 01:33:31;;;;;;;9.13;1.90;;;13.80;84.30;;;;;;5065978;28;20367;-77
2021/06/13 01:35:56;;;;;;;11.63;2.38;;;13.80;86.60;;;;;;5067586;28;20028;-77
2021/06/13 01:38:22;;;;;;;9.52;2.10;;;13.80;85.60;;;;;;5048162;28;20266;-78
2021/06/13 01:40:47;;;;;;;11.75;2.60;;;13.80;84.30;;;;;;5086835;28;20005;-79
2021/06/13 01:43:15;;;;;;;10.77;2.65;;;13.80;85.50;;;;;;5086350;28;20048;-79
2021/06/13 01:45:41;;;;;;;10.07;2.53;;;13.80;87.00;;;;;;5081855;28;20001;-78
2021/06/13 01:48:08;;;;;;;12.02;2.60;;;13.80;86.10;;;;;;5071885;28;20004;-78
2021/06/13 01:50:34;;;;;;;10.93;2.33;;;13.80;86.80;;;;;;5071481;28;20213;-78
2021/06/13 01:53:01;;;;;;;11.48;2.30;;;13.80;85.60;;;;;;5068900;28;20028;-79
2021/06/13 01:55:26;;;;;;;9.63;2.15;;;13.80;86.90;;;;;;5068650;28;20017;-79
2021/06/13 01:57:52;;;;;;;11.15;2.75;;;13.80;86.20;;;;;;5051623;28;20009;-78
2021/06/13 02:00:18;;;;;;;10.32;2.78;;;13.80;86.80;;;;;;5056911;28;20076;-78
2021/06/13 02:02:45;;;;;;;11.30;2.72;;;13.80;85.60;;;;;;5079120;28;20021;-79
2021/06/13 02:05:11;;;;;;;10.60;2.38;;;13.80;86.70;;;;;;5081915;28;20122;-78
2021/06/13 02:07:37;;;;;;;9.75;2.20;;;13.90;86.40;;;;;;5069547;28;20020;-79
2021/06/13 02:10:06;;;;;;;9.43;2.35;;;13.90;86.60;;;;;;5069053;28;20040;-78
2021/06/13 02:12:38;;;;;;;10.90;2.70;;;13.90;87.00;;;;;;5085776;28;20013;-78
2021/06/13 02:15:04;;;;;;;9.23;2.47;;;13.90;86.70;;;;;;5068844;28;20016;-79
2021/06/13 02:17:32;;;;;;;10.25;2.40;;;13.90;86.10;;;;;;5049017;28;20440;-79
2021/06/13 02:19:58;;;;;;;11.85;2.53;;;13.90;86.50;;;;;;5049084;28;20088;-79
2021/06/13 02:22:24;;;;;;;12.18;2.80;;;13.90;87.60;;;;;;5056489;28;20020;-79
2021/06/13 02:24:50;;;;;;;11.23;2.92;;;14.00;87.40;;;;;;5053276;28;20091;-80
2021/06/13 02:27:18;;;;;;;9.93;2.30;;;13.90;85.20;;;;;;5055972;28;20020;-79
2021/06/13 02:29:43;;;;;;;11.48;2.65;;;13.90;84.70;;;;;;5087510;28;20241;-79
2021/06/13 02:32:09;;;;;;;14.45;2.53;;;13.90;86.00;;;;;;5070941;28;20079;-78
2021/06/13 02:34:35;;;;;;;10.00;2.10;;;13.90;85.40;;;;;;5085574;28;20015;-79
2021/06/13 02:37:02;;;;;;;9.57;2.47;;;13.90;85.40;;;;;;5085923;28;20036;-77
2021/06/13 02:39:28;;;;;;;10.32;2.60;;;13.90;85.80;;;;;;5069074;28;20073;-78
2021/06/13 02:41:53;;;;;;;12.50;3.22;;;13.90;85.20;;;;;;5052138;28;20020;-79
2021/06/13 02:44:19;;;;;;;12.70;2.65;;;13.90;85.30;;;;;;5085248;28;20023;-79
2021/06/13 02:46:45;;;;;;;11.75;2.70;;;13.90;85.80;;;;;;5051870;28;20318;-79
2021/06/13 02:49:11;;;;;;;8.25;2.22;;;13.90;86.50;;;;;;5068869;28;20202;-78
2021/06/13 02:51:51;;;;;;;12.35;2.80;;;13.90;86.10;;;;;;5069216;28;20822;-79
2021/06/13 02:54:17;;;;;;;9.38;2.20;;;14.00;86.00;;;;;;5086665;28;20051;-79
2021/06/13 02:56:46;;;;;;;9.65;2.25;;;13.90;85.70;;;;;;5054392;28;20013;-79
2021/06/13 02:59:48;;;;;;;12.30;2.70;;;14.00;85.10;;;;;;5087639;28;20371;-79
2021/06/13 03:02:15;;;;;;;9.32;2.50;;;14.00;87.00;;;;;;5070375;28;20017;-79
2021/06/13 03:04:41;;;;;;;12.25;2.47;;;14.00;86.20;;;;;;5069132;28;20039;-79
2021/06/13 03:07:07;;;;;;;11.48;2.60;;;14.00;86.20;;;;;;5052492;28;20019;-78
2021/06/13 03:09:34;;;;;;;9.95;1.73;;;14.00;86.10;;;;;;5052256;28;20214;-79
2021/06/13 03:12:00;;;;;;;11.10;3.00;;;14.00;85.10;;;;;;5068442;28;20023;-80
2021/06/13 03:14:27;;;;;;;11.02;2.42;;;14.00;86.20;;;;;;5084945;28;20340;-79
2021/06/13 03:16:53;;;;;;;11.27;3.08;;;14.00;87.50;;;;;;5051727;28;20312;-79
2021/06/13 03:19:19;;;;;;;13.50;2.88;;;14.10;86.20;;;;;;5051512;28;20013;-78
2021/06/13 03:21:45;;;;;;;11.15;2.90;;;14.00;86.40;;;;;;5067794;28;20032;-78
2021/06/13 03:24:11;;;;;;;12.50;2.30;;;14.00;86.50;;;;;;5084319;28;20221;-80
2021/06/13 03:26:36;;;;;;;16.58;3.00;;;14.10;86.70;;;;;;5069296;28;20008;-79
2021/06/13 03:29:02;;;;;;;8.93;2.67;;;14.10;85.50;;;;;;5071416;28;20011;-78
2021/06/13 03:31:28;;;;;;;16.92;3.05;;;14.00;85.70;;;;;;5068707;28;20009;-80
2021/06/13 03:33:54;;;;;;;11.15;2.47;;;14.00;86.10;;;;;;5051287;28;20036;-79
2021/06/13 03:36:19;;;;;;;9.77;2.47;;;14.00;84.50;;;;;;5051479;28;20330;-79
2021/06/13 03:38:46;;;;;;;12.95;3.15;;;14.00;83.80;;;;;;5041542;28;20094;-79
2021/06/13 03:41:14;;;;;;;12.63;2.92;;;14.00;83.30;;;;;;5064684;28;20009;-79
2021/06/13 03:43:40;;;;;;;11.25;2.83;;;14.10;82.90;;;;;;5047628;28;20052;-79
2021/06/13 03:46:05;;;;;;;12.57;2.63;;;14.10;83.50;;;;;;5067267;28;20344;-78
2021/06/13 03:48:31;;;;;;;11.77;2.50;;;14.10;83.00;;;;;;5050691;28;20008;-79
2021/06/13 03:50:57;;;;;;;11.55;2.83;;;14.10;84.20;;;;;;5050931;28;20054;-79
2021/06/13 03:53:23;;;;;;;14.70;2.45;;;14.10;85.50;;;;;;5069322;28;20058;-78
2021/06/13 03:55:49;;;;;;;10.70;2.55;;;14.20;85.80;;;;;;5085245;28;20020;-79
2021/06/13 03:58:15;;;;;;;11.68;2.38;;;14.30;85.10;;;;;;5067397;28;20020;-80
2021/06/13 04:00:41;;;;;;;14.32;2.78;;;14.20;85.10;;;;;;5067578;28;20370;-78
2021/06/13 04:03:07;;;;;;;9.85;2.20;;;14.20;84.10;;;;;;5067632;28;20020;-77
2021/06/13 04:05:33;;;;;;;11.40;2.45;;;14.20;83.30;;;;;;5069815;28;20036;-78
2021/06/13 04:07:58;;;;;;;9.27;2.10;;;14.20;84.40;;;;;;5070253;28;20005;-78
2021/06/13 04:10:24;;;;;;;13.73;2.78;;;14.30;82.90;;;;;;5050697;28;20017;-78
2021/06/13 04:12:49;;;;;;;8.18;2.15;;;14.30;82.50;;;;;;5068424;28;20062;-78
2021/06/13 04:15:16;;;;;;;10.10;2.35;;;14.40;82.20;;;;;;5051377;28;20026;-78
2021/06/13 04:17:42;;;;;;;7.18;1.90;;;14.40;82.40;;;;;;5068275;28;20275;-78
2021/06/13 04:20:10;;;;;;;6.05;1.83;;;14.40;82.00;;;;;;5068192;28;20013;-78
2021/06/13 04:22:37;;;;;;;8.80;1.95;;;14.40;82.20;;;;;;5048374;28;20131;-77
2021/06/13 04:25:02;;;;;;;15.02;2.50;;;14.40;82.40;;;;;;5064738;28;20009;-77
2021/06/13 04:27:28;;;;;;;9.40;2.55;;;14.40;82.00;;;;;;5064858;28;20011;-78
2021/06/13 04:29:59;;;;;;;10.32;2.33;;;14.40;83.40;;;;;;5066466;28;20000;-78
2021/06/13 04:32:24;;;;;;;9.48;2.40;;;14.50;82.40;;;;;;5077738;28;20070;-78
2021/06/13 04:34:50;;;;;;;12.57;2.58;;;14.60;82.90;;;;;;5064827;28;20009;-78
2021/06/13 04:37:17;;;;;;;8.48;2.47;;;14.70;82.00;;;;;;5064537;28;20005;-78
2021/06/13 04:39:42;;;;;;;8.93;2.08;;;14.70;81.70;;;;;;5064601;28;20064;-77
2021/06/13 04:42:08;;;;;;;8.48;2.00;;;14.50;82.20;;;;;;5081800;28;20016;-77
2021/06/13 04:44:34;;;;;;;8.23;2.28;;;14.40;82.40;;;;;;5070209;28;20048;-78
2021/06/13 04:47:00;;;;;;;13.65;2.30;;;14.40;81.50;;;;;;5053419;28;20016;-77
2021/06/13 04:49:26;;;;;;;8.45;1.85;;;14.50;81.70;;;;;;5050135;28;20005;-77
2021/06/13 04:51:54;;;;;;;8.05;1.80;;;14.60;81.50;;;;;;5061910;28;20215;-77
2021/06/13 04:54:25;;;;;;;10.95;2.47;;;14.60;81.20;;;;;;5070249;28;20013;-77
2021/06/13 04:56:56;;;;;;;7.75;1.77;;;14.60;82.50;;;;;;5086955;28;20046;-78
2021/06/13 04:59:22;;;;;;;7.90;1.90;;;14.60;82.00;;;;;;5088414;28;20214;-77
2021/06/13 05:01:47;;;;;;;8.75;2.25;;;14.60;80.90;;;;;;5067945;28;20027;-79
2021/06/13 05:04:13;;;;;;;10.07;2.00;;;14.60;81.20;;;;;;5072347;28;20016;-78
2021/06/13 05:06:42;;;;;;;12.50;2.58;;;14.60;82.30;;;;;;5051723;28;20008;-78
2021/06/13 05:09:08;;;;;;;8.07;1.80;;;14.80;82.80;;;;;;5051423;28;20009;-78
2021/06/13 05:11:34;;;;;;;10.35;2.55;;;14.90;80.60;;;;;;5083715;28;20009;-78
2021/06/13 05:13:59;;;;;;;7.53;1.83;;;14.90;80.30;;;;;;5050549;28;20013;-78
2021/06/13 05:16:25;;;;;;;7.72;1.90;;;15.00;81.10;;;;;;5067816;28;20020;-78
2021/06/13 05:18:50;;;;;;;8.00;1.85;;;15.10;81.50;;;;;;5068877;28;20013;-78
2021/06/13 05:21:16;;;;;;;9.02;1.88;;;15.20;80.30;;;;;;5063238;28;20126;-78
2021/06/13 05:23:42;;;;;;;11.23;2.75;;;15.20;79.50;;;;;;5080218;28;20024;-78
2021/06/13 05:26:07;;;;;;;9.07;2.45;;;15.10;79.20;;;;;;5063732;28;20009;-77
2021/06/13 05:28:33;;;;;;;7.80;2.05;;;15.10;80.00;;;;;;5077740;28;20357;-78
2021/06/13 05:30:59;;;;;;;8.45;2.10;;;15.20;80.80;;;;;;5082985;28;20036;-79
2021/06/13 05:33:25;;;;;;;9.60;2.22;;;15.20;79.80;;;;;;5066653;28;20313;-78
2021/06/13 05:35:50;;;;;;;7.95;1.92;;;15.20;80.80;;;;;;5049768;28;20079;-78
2021/06/13 05:38:16;;;;;;;6.93;1.60;;;15.20;80.40;;;;;;5084191;28;20053;-80
2021/06/13 05:40:42;;;;;;;5.90;1.33;;;15.40;80.10;;;;;;5081445;28;20008;-80
2021/06/13 05:43:08;;;;;;;8.23;1.80;;;15.50;79.50;;;;;;5068134;28;20029;-77
2021/06/13 05:45:34;;;;;;;6.20;1.60;;;15.40;79.30;;;;;;5084496;28;20000;-78
2021/06/13 05:48:00;;;;;;;7.40;1.70;;;15.50;79.10;;;;;;5084994;28;20045;-79
2021/06/13 05:50:26;;;;;;;9.35;1.80;;;15.10;78.80;;;;;;5066679;28;20044;-79
2021/06/13 05:52:51;;;;;;;7.55;1.73;;;15.00;79.80;;;;;;5049173;28;20013;-78
2021/06/13 05:55:17;;;;;;;6.90;1.77;;;14.90;80.50;;;;;;5048327;28;20035;-78
2021/06/13 05:57:44;;;;;;;7.63;1.80;;;15.20;80.30;;;;;;5064322;28;20009;-79
2021/06/13 06:00:14;;;;;;;5.32;1.48;;;15.30;79.60;;;;;;5062315;28;20040;-80
2021/06/13 06:02:40;;;;;;;8.02;1.90;;;15.50;78.80;;;;;;5052359;28;20076;-78
2021/06/13 06:05:07;;;;;;;6.70;1.75;;;15.30;78.20;;;;;;5068780;28;20024;-78
2021/06/13 06:07:32;;;;;;;6.57;1.60;;;15.10;79.60;;;;;;5051331;28;20206;-78
2021/06/13 06:09:58;;;;;;;12.70;2.22;;;15.00;80.40;;;;;;5048988;28;20012;-79
2021/06/13 06:12:24;;;;;;;7.53;1.65;;;15.00;81.00;;;;;;5083783;28;20015;-77
2021/06/13 06:14:50;;;;;;;10.90;2.47;;;15.00;82.10;;;;;;5067446;28;20260;-76
2021/06/13 06:17:15;;;;;;;6.72;1.63;;;14.90;81.60;;;;;;5074077;28;20017;-79
2021/06/13 06:19:41;;;;;;;7.35;1.95;;;15.10;82.40;;;;;;5069401;28;20005;-79
2021/06/13 06:22:07;;;;;;;8.88;1.85;;;15.70;80.20;;;;;;5066506;28;20337;-78
2021/06/13 06:24:32;;;;;;;8.93;2.25;;;15.90;78.60;;;;;;5051871;28;20055;-78
2021/06/13 06:26:58;;;;;;;7.57;1.70;;;16.60;75.70;;;;;;5051454;28;20032;-77
2021/06/13 06:29:23;;;;;;;4.82;1.50;;;17.10;73.90;;;;;;5056262;28;20310;-79
2021/06/13 06:31:50;;;;;;;6.35;1.70;;;16.70;73.40;;;;;;5056325;28;20012;-78
2021/06/13 06:34:16;;;;;;;6.47;1.73;;;17.10;72.90;;;;;;5068223;28;20013;-78
2021/06/13 06:36:42;;;;;;;5.50;1.58;;;17.20;70.50;;;;;;5052404;28;20012;-78
2021/06/13 06:39:07;;;;;;;4.85;1.63;;;17.30;70.50;;;;;;5053943;28;20048;-78
2021/06/13 06:41:34;;;;;;;5.78;1.60;;;18.00;69.70;;;;;;5056573;28;20028;-78
2021/06/13 06:44:00;;;;;;;5.53;1.20;;;18.10;68.40;;;;;;5074710;28;20020;-77
2021/06/13 06:46:25;;;;;;;6.18;1.70;;;18.60;68.20;;;;;;5057821;28;20024;-77
2021/06/13 06:48:51;;;;;;;7.95;1.80;;;18.60;66.80;;;;;;5071233;28;20060;-76
2021/06/13 06:51:16;;;;;;;6.78;2.00;;;17.80;69.00;;;;;;5087960;28;20016;-76
2021/06/13 06:53:42;;;;;;;8.32;1.92;;;17.20;71.10;;;;;;5071646;28;20039;-76
2021/06/13 06:56:08;;;;;;;6.45;1.80;;;16.60;73.90;;;;;;5072011;28;20013;-76
2021/06/13 06:58:33;;;;;;;7.65;1.77;;;16.50;74.80;;;;;;5072703;28;20013;-76
2021/06/13 07:00:59;;;;;;;8.68;2.47;;;16.10;76.40;;;;;;5090749;28;20012;-77
2021/06/13 07:03:25;;;;;;;8.60;2.15;;;15.90;77.30;;;;;;5076212;28;20024;-76
2021/06/13 07:05:50;;;;;;;8.43;1.60;;;16.20;76.80;;;;;;5075642;28;20074;-77
2021/06/13 07:08:16;;;;;;;6.90;2.15;;;15.90;76.60;;;;;;5090883;28;20016;-77
2021/06/13 07:10:42;;;;;;;7.30;1.77;;;16.00;77.10;;;;;;5090579;28;20015;-77
2021/06/13 07:13:07;;;;;;;5.90;1.50;;;16.50;74.40;;;;;;5073040;28;20083;-77
2021/06/13 07:15:33;;;;;;;6.20;1.80;;;16.80;73.50;;;;;;5073395;28;20008;-79
2021/06/13 07:17:58;;;;;;;5.82;1.60;;;16.90;74.50;;;;;;5057553;28;20097;-76
2021/06/13 07:20:24;;;;;;;4.95;1.48;;;17.40;73.20;;;;;;5058767;28;20016;-77
2021/06/13 07:22:50;;;;;;;5.68;1.58;;;17.50;70.10;;;;;;5051354;28;20024;-77
2021/06/13 07:25:16;;;;;;;6.25;1.70;;;17.50;70.50;;;;;;5070618;28;20009;-77
2021/06/13 07:27:41;;;;;;;6.28;1.52;;;17.30;70.50;;;;;;5070142;28;20009;-76
2021/06/13 07:30:09;;;;;;;5.78;1.85;;;17.20;70.70;;;;;;5078559;28;20015;-76
2021/06/13 07:32:35;;;;;;;4.38;1.20;;;16.70;72.30;;;;;;5073186;28;20329;-77
2021/06/13 07:35:03;;;;;;;6.10;1.77;;;16.50;74.00;;;;;;5056501;28;20009;-77
2021/06/13 07:37:28;;;;;;;7.57;1.92;;;16.70;73.50;;;;;;5056624;28;20009;-77
2021/06/13 07:39:54;;;;;;;6.90;1.58;;;17.00;73.10;;;;;;5067951;28;20060;-76
2021/06/13 07:42:20;;;;;;;7.88;1.63;;;16.80;73.70;;;;;;5068292;28;20005;-78
2021/06/13 07:44:45;;;;;;;5.80;1.70;;;16.50;75.10;;;;;;5065555;28;20054;-78
2021/06/13 07:47:11;;;;;;;9.07;1.88;;;17.00;74.10;;;;;;5049284;28;20009;-78
2021/06/13 07:49:37;;;;;;;9.98;2.00;;;17.10;72.80;;;;;;5054406;28;20025;-77
2021/06/13 07:52:03;;;;;;;8.32;1.60;;;17.10;71.80;;;;;;5036391;28;20082;-79
2021/06/13 07:54:29;;;;;;;6.93;2.08;;;17.30;72.50;;;;;;5052578;28;20226;-79
2021/06/13 07:56:55;;;;;;;7.10;1.80;;;17.80;69.40;;;;;;5049086;28;20035;-79
2021/06/13 07:59:21;;;;;;;5.15;1.50;;;17.90;68.50;;;;;;5066809;28;20013;-79
2021/06/13 08:01:46;;;;;;;5.88;1.50;;;17.90;69.60;;;;;;5053157;28;20016;-77
2021/06/13 08:04:12;;;;;;;7.03;1.90;;;18.00;68.90;;;;;;5054258;28;20028;-77
2021/06/13 08:06:38;;;;;;;4.47;1.60;;;17.70;69.70;;;;;;5071466;28;20005;-78
2021/06/13 08:09:04;;;;;;;8.05;2.70;;;17.70;68.80;;;;;;5071887;28;20210;-78
2021/06/13 08:11:30;;;;;;;7.30;2.55;;;17.80;67.90;;;;;;5070759;28;20012;-77
2021/06/13 08:13:56;;;;;;;4.97;2.15;;;18.00;67.40;;;;;;5071177;28;20078;-78
2021/06/13 08:16:21;;;;;;;7.32;2.38;;;18.00;67.90;;;;;;5070956;28;20024;-77
2021/06/13 08:18:47;;;;;;;4.90;1.75;;;18.10;67.40;;;;;;5070128;28;20008;-78
2021/06/13 08:21:13;;;;;;;3.83;1.33;;;18.20;67.00;;;;;;5069582;28;20009;-79
2021/06/13 08:23:38;;;;;;;6.25;1.80;;;18.40;67.20;;;;;;5068001;28;20066;-79
2021/06/13 08:26:04;;;;;;;5.40;1.67;;;18.30;67.00;;;;;;5052331;28;20122;-80
2021/06/13 08:28:29;;;;;;;4.13;1.35;;;18.70;65.60;;;;;;5069937;28;20009;-79
2021/06/13 08:30:55;;;;;;;4.72;1.30;;;18.40;66.80;;;;;;5069900;28;20011;-79
2021/06/13 08:33:21;;;;;;;6.80;1.73;;;18.60;67.00;;;;;;5052164;28;20013;-79
2021/06/13 08:35:47;;;;;;;5.75;1.77;;;18.70;65.80;;;;;;5052417;28;20321;-80
2021/06/13 08:38:12;;;;;;;4.53;1.20;;;18.90;65.00;;;;;;5051343;28;20017;-80
2021/06/13 08:40:38;;;;;;;4.90;1.50;;;18.90;65.30;;;;;;5050731;28;20024;-80
2021/06/13 08:43:04;;;;;;;7.72;1.73;;;19.30;64.40;;;;;;5052893;28;20052;-82
2021/06/13 08:45:31;;;;;;;5.53;1.48;;;19.10;64.50;;;;;;5047998;28;20046;-80
2021/06/13 08:47:56;;;;;;;4.05;1.42;;;18.90;65.00;;;;;;5067393;28;20012;-80
2021/06/13 08:50:22;;;;;;;5.78;1.63;;;19.00;64.40;;;;;;5083920;28;20016;-79
2021/06/13 08:52:48;;;;;;;4.30;1.42;;;19.00;64.50;;;;;;5065203;28;20008;-80
2021/06/13 08:55:15;;;;;;;5.10;1.42;;;18.80;65.00;;;;;;5066317;28;20039;-80
2021/06/13 08:57:40;;;;;;;4.10;1.40;;;18.80;64.70;;;;;;5065281;28;20016;-80
2021/06/13 09:00:09;;;;;;;4.95;1.48;;;18.70;64.60;;;;;;5064650;28;20004;-79
2021/06/13 09:02:34;;;;;;;11.18;1.58;;;18.60;65.50;;;;;;5069538;28;20031;-79
2021/06/13 09:05:00;;;;;;;4.95;1.73;;;18.60;65.00;;;;;;5050297;28;20166;-79
2021/06/13 09:07:26;;;;;;;4.65;1.50;;;18.60;65.00;;;;;;5068297;28;20034;-79
2021/06/13 09:09:55;;;;;;;8.90;1.63;;;18.50;65.20;;;;;;5050520;28;20012;-79
2021/06/13 09:12:21;;;;;;;7.22;1.83;;;18.20;65.80;;;;;;5048638;28;20339;-80
2021/06/13 09:14:49;;;;;;;5.20;1.42;;;18.10;66.10;;;;;;5051185;28;20199;-80
2021/06/13 09:17:16;;;;;;;5.90;1.60;;;18.10;65.40;;;;;;5047424;28;20080;-79
2021/06/13 09:20:08;;;;;;;4.45;1.23;;;18.20;64.90;;;;;;5072643;28;20012;-80
2021/06/13 09:22:34;;;;;;;7.25;1.85;;;18.40;66.00;;;;;;5082337;28;20013;-80
2021/06/13 09:25:11;;;;;;;5.03;1.45;;;18.50;65.20;;;;;;5053063;28;20012;-80
2021/06/13 09:27:38;;;;;;;4.65;1.55;;;18.90;65.50;;;;;;5052124;28;20100;-79
2021/06/13 09:30:04;;;;;;;6.60;1.67;;;19.00;64.00;;;;;;5051490;28;20012;-79
2021/06/13 09:32:30;;;;;;;4.40;1.25;;;19.00;63.90;;;;;;5073351;28;20017;-81
2021/06/13 09:35:18;;;;;;;3.92;1.20;;;18.90;64.00;;;;;;5049312;28;20372;-79
2021/06/13 09:38:09;;;;;;;4.05;1.52;;;19.10;62.70;;;;;;5067036;28;20013;-81
2021/06/13 09:40:35;;;;;;;5.82;1.80;;;18.80;62.70;;;;;;5068487;28;20040;-79
2021/06/13 09:43:11;;;;;;;4.10;1.50;;;18.80;63.60;;;;;;5068187;28;20029;-80
2021/06/13 09:45:37;;;;;;;4.60;1.40;;;18.90;64.20;;;;;;5053416;28;20044;-79
2021/06/13 09:48:03;;;;;;;7.00;1.48;;;18.80;64.70;;;;;;5050751;28;20187;-80
2021/06/13 09:50:40;;;;;;;7.28;1.80;;;18.50;64.70;;;;;;5048466;28;20047;-79
2021/06/13 09:53:22;;;;;;;5.07;1.45;;;18.30;65.10;;;;;;5068348;28;20028;-78
2021/06/13 09:56:02;;;;;;;6.18;1.40;;;18.50;65.80;;;;;;5068455;28;20145;-80
2021/06/13 09:58:28;;;;;;;5.07;1.40;;;18.60;63.80;;;;;;5073294;28;20042;-80
2021/06/13 10:00:54;;;;;;;7.07;1.55;;;18.50;63.60;;;;;;5055196;28;20013;-80
2021/06/13 10:03:25;;;;;;;6.45;1.48;;;18.40;64.80;;;;;;5050681;28;20040;-79
2021/06/13 10:05:57;;;;;;;4.22;1.20;;;18.20;64.80;;;;;;5067832;28;20009;-80
2021/06/13 10:08:28;;;;;;;6.57;1.50;;;18.20;65.00;;;;;;5067677;28;20013;-81
2021/06/13 10:10:54;;;;;;;4.23;1.30;;;18.50;64.60;;;;;;5067977;28;20005;-79
2021/06/13 10:13:20;;;;;;;4.60;1.50;;;18.80;64.40;;;;;;5068564;28;20008;-81
2021/06/13 10:15:50;;;;;;;7.68;1.75;;;18.70;62.70;;;;;;5056675;28;20091;-80
2021/06/13 10:18:16;;;;;;;4.45;1.20;;;18.50;64.20;;;;;;5055303;28;20013;-83
2021/06/13 10:20:43;;;;;;;4.32;1.50;;;18.70;62.60;;;;;;5070890;28;20013;-81
2021/06/13 10:23:09;;;;;;;5.20;1.50;;;18.90;61.40;;;;;;5087950;28;20377;-80
2021/06/13 10:25:34;;;;;;;3.70;1.30;;;18.80;61.40;;;;;;5055524;28;20042;-80
2021/06/13 10:28:00;;;;;;;3.00;1.08;;;18.80;62.50;;;;;;5056008;28;20032;-80
2021/06/13 10:30:26;;;;;;;4.38;1.63;;;19.00;61.40;;;;;;5070659;28;20016;-80
2021/06/13 10:32:51;;;;;;;4.70;1.10;;;19.10;60.50;;;;;;5070859;28;20008;-80
2021/06/13 10:35:17;;;;;;;4.05;1.35;;;19.10;60.30;;;;;;5053630;28;20000;-80
2021/06/13 10:37:43;;;;;;;4.43;1.17;;;19.20;60.30;;;;;;5053590;28;20310;-79
2021/06/13 10:40:09;;;;;;;4.88;1.27;;;19.10;61.10;;;;;;5051353;28;20040;-81
2021/06/13 10:42:38;;;;;;;3.08;1.10;;;19.20;60.60;;;;;;5067710;28;20009;-79
2021/06/13 10:45:04;;;;;;;3.65;1.00;;;19.40;59.20;;;;;;5068137;28;20005;-79
2021/06/13 10:47:30;;;;;;;6.65;1.83;;;19.10;59.30;;;;;;5068398;28;20012;-80
2021/06/13 10:49:55;;;;;;;4.60;1.45;;;19.00;59.90;;;;;;5081151;28;20208;-80
2021/06/13 10:52:23;;;;;;;4.22;1.20;;;18.60;59.90;;;;;;5089009;28;20009;-78
2021/06/13 10:54:52;;;;;;;2.60;1.02;;;18.60;61.70;;;;;;5071326;28;20420;-80
2021/06/13 10:57:17;;;;;;;4.57;1.30;;;18.90;61.60;;;;;;5089533;28;20019;-80
2021/06/13 10:59:44;;;;;;;2.58;1.13;;;18.80;61.50;;;;;;5093141;28;20009;-79
2021/06/13 11:02:14;;;;;;;4.90;1.45;;;18.90;61.90;;;;;;5095820;28;20653;-80
2021/06/13 11:04:43;;;;;;;4.20;1.45;;;18.80;61.90;;;;;;5059275;28;20104;-79
2021/06/13 11:07:10;;;;;;;7.50;1.65;;;18.60;61.40;;;;;;5072460;28;20020;-79
2021/06/13 11:10:17;;;;;;;3.55;1.20;;;18.40;62.00;;;;;;5052618;28;20075;-80
2021/06/13 11:13:00;;;;;;;5.00;1.30;;;18.50;61.50;;;;;;5089380;28;20004;-80
2021/06/13 11:15:26;;;;;;;3.40;1.15;;;18.30;60.40;;;;;;5090193;28;20004;-79
2021/06/13 11:17:53;;;;;;;3.70;1.20;;;18.40;61.80;;;;;;5090554;28;20086;-79
2021/06/13 11:21:03;;;;;;;6.38;1.40;;;18.40;62.30;;;;;;5075004;28;20168;-79
2021/06/13 11:23:22;;;;;;;3.67;1.17;;;18.30;63.40;;;;;;5093663;28;20044;-80
2021/06/13 11:25:49;;;;;;;4.75;1.23;;;18.40;62.70;;;;;;5094386;28;20013;-79
2021/06/13 11:28:19;;;;;;;4.10;1.40;;;18.60;62.30;;;;;;5054841;28;20009;-79
2021/06/13 11:30:47;;;;;;;5.07;1.40;;;18.30;62.60;;;;;;5069538;28;20013;-79
2021/06/13 11:33:34;;;;;;;4.80;1.40;;;18.30;61.10;;;;;;5085738;28;20016;-79
2021/06/13 11:36:04;;;;;;;4.78;1.38;;;18.10;59.70;;;;;;5068651;28;20086;-79
2021/06/13 11:38:30;;;;;;;3.83;1.23;;;18.20;61.10;;;;;;5068410;28;20032;-80
2021/06/13 11:41:03;;;;;;;6.05;1.52;;;18.20;61.50;;;;;;5073069;28;20050;-81
2021/06/13 11:43:41;;;;;;;4.10;1.35;;;18.10;61.20;;;;;;5055221;28;20317;-78
2021/06/13 11:46:07;;;;;;;5.20;1.60;;;18.10;61.40;;;;;;5053118;28;20259;-78
2021/06/13 11:48:33;;;;;;;6.68;1.88;;;18.30;61.70;;;;;;5064931;28;20044;-79
2021/06/13 11:51:12;;;;;;;6.22;1.58;;;18.30;61.20;;;;;;5069417;28;20011;-80
2021/06/13 11:54:00;;;;;;;6.65;1.55;;;18.10;60.60;;;;;;5068269;28;20027;-80
2021/06/13 11:58:58;;;;;;;4.82;1.30;;;18.00;62.60;;;;;;5085580;28;20217;-79
2021/06/13 12:01:24;;;;;;;5.50;1.50;;;18.30;63.00;;;;;;5067861;28;20433;-78
2021/06/13 12:03:50;;;;;;;3.05;1.10;;;18.50;62.30;;;;;;5052940;28;20028;-79
2021/06/13 12:06:18;;;;;;;4.25;1.27;;;18.50;62.60;;;;;;5069437;28;20325;-79
2021/06/13 12:08:45;;;;;;;5.65;1.73;;;18.50;63.40;;;;;;5055083;28;20008;-80
2021/06/13 12:11:38;;;;;;;6.28;1.90;;;18.50;62.90;;;;;;5086845;28;20000;-79
2021/06/13 12:14:39;;;;;;;10.45;2.13;;;18.50;62.20;;;;;;5086385;28;20008;-80
2021/06/13 12:17:10;;;;;;;5.32;1.40;;;18.50;63.00;;;;;;5066948;28;20027;-80
2021/06/13 12:19:36;;;;;;;;;;;18.50;61.10;;;;;;5082709;28;20016;-79
2021/06/13 12:22:33;;;;;;;7.18;1.75;;;18.40;62.20;;;;;;5085542;28;19896;-78
2021/06/13 12:27:26;;;;;;;5.35;1.83;;;18.40;60.20;;;;;;5087040;28;20016;-78
2021/06/13 12:30:01;;;;;;;5.28;1.50;;;18.40;62.20;;;;;;5052522;28;20088;-79
2021/06/13 12:32:27;;;;;;;8.20;1.98;;;18.60;61.10;;;;;;5067922;28;20072;-78
2021/06/13 12:35:15;;;;;;;5.15;1.60;;;18.40;61.60;;;;;;5088747;28;20023;-78
2021/06/13 12:38:03;;;;;;;4.68;1.67;;;18.40;61.90;;;;;;5087409;28;20016;-78
2021/06/13 12:40:29;;;;;;;4.03;1.60;;;18.70;60.70;;;;;;5086028;28;20095;-78
2021/06/13 12:42:55;;;;;;;6.10;1.77;;;18.50;61.20;;;;;;5084473;28;20239;-79
2021/06/13 12:45:21;;;;;;;4.93;1.50;;;18.60;60.30;;;;;;5067723;28;20009;-79
2021/06/13 12:47:48;;;;;;;5.90;1.75;;;18.70;61.00;;;;;;5051099;28;20019;-78
2021/06/13 12:50:22;;;;;;;6.88;1.80;;;18.80;61.10;;;;;;5067797;28;20016;-79
2021/06/13 12:52:52;;;;;;;5.40;1.80;;;18.60;61.20;;;;;;5068064;28;20028;-79
2021/06/13 12:55:17;;;;;;;6.53;1.50;;;18.70;61.80;;;;;;5051136;28;20008;-79